sensor_id;sensor_type;location;lat;lon;timestamp;P1;durP1;ratioP1;P2;durP2;ratioP2
80584;SDS011;70137;56.482;9.154;2024-02-21T00:01:21;21.67;;;5.72;;
80584;SDS011;70137;56.482;9.154;2024-02-21T00:03:47;13.77;;;5.75;;
80584;SDS011;70137;56.482;9.154;2024-02-21T00:06:13;19.20;;;4.75;;
80584;SDS011;70137;56.482;9.154;2024-02-21T00:08:38;15.48;;;5.28;;
80584;SDS011;70137;56.482;9.154;2024-02-21T00:11:03;14.77;;;4.85;;
80584;SDS011;70137;56.482;9.154;2024-02-21T00:13:29;18.35;;;5.22;;
80584;SDS011;70137;56.482;9.154;2024-02-21T00:15:55;15.98;;;4.88;;
80584;SDS011;70137;56.482;9.154;2024-02-21T00:18:20;18.13;;;5.80;;
80584;SDS011;70137;56.482;9.154;2024-02-21T00:20:45;17.20;;;5.03;;
80584;SDS011;70137;56.482;9.154;2024-02-21T00:23:11;12.90;;;5.00;;
80584;SDS011;70137;56.482;9.154;2024-02-21T00:25:36;20.70;;;4.88;;
80584;SDS011;70137;56.482;9.154;2024-02-21T00:28:02;15.38;;;6.18;;
80584;SDS011;70137;56.482;9.154;2024-02-21T00:30:28;13.35;;;4.72;;
80584;SDS011;70137;56.482;9.154;2024-02-21T00:32:53;16.92;;;4.80;;
80584;SDS011;70137;56.482;9.154;2024-02-21T00:35:18;11.32;;;4.10;;
80584;SDS011;70137;56.482;9.154;2024-02-21T00:37:44;8.82;;;3.35;;
80584;SDS011;70137;56.482;9.154;2024-02-21T00:40:09;6.78;;;2.90;;
80584;SDS011;70137;56.482;9.154;2024-02-21T00:42:35;5.75;;;2.17;;
80584;SDS011;70137;56.482;9.154;2024-02-21T00:45:01;8.07;;;2.80;;
80584;SDS011;70137;56.482;9.154;2024-02-21T00:47:26;8.43;;;2.67;;
80584;SDS011;70137;56.482;9.154;2024-02-21T00:49:52;3.92;;;2.40;;
80584;SDS011;70137;56.482;9.154;2024-02-21T00:52:17;5.00;;;2.72;;
80584;SDS011;70137;56.482;9.154;2024-02-21T00:54:43;10.40;;;2.45;;
80584;SDS011;70137;56.482;9.154;2024-02-21T00:57:08;7.90;;;2.72;;
80584;SDS011;70137;56.482;9.154;2024-02-21T00:59:33;5.22;;;2.40;;
80584;SDS011;70137;56.482;9.154;2024-02-21T01:01:59;5.10;;;2.08;;
80584;SDS011;70137;56.482;9.154;2024-02-21T01:04:24;4.00;;;2.20;;
80584;SDS011;70137;56.482;9.154;2024-02-21T01:06:50;8.68;;;2.50;;
80584;SDS011;70137;56.482;9.154;2024-02-21T01:09:15;5.78;;;2.80;;
80584;SDS011;70137;56.482;9.154;2024-02-21T01:11:40;7.35;;;2.97;;
80584;SDS011;70137;56.482;9.154;2024-02-21T01:14:06;8.70;;;2.65;;
80584;SDS011;70137;56.482;9.154;2024-02-21T01:16:31;7.43;;;2.53;;
80584;SDS011;70137;56.482;9.154;2024-02-21T01:18:57;8.82;;;3.00;;
80584;SDS011;70137;56.482;9.154;2024-02-21T01:21:22;4.53;;;2.55;;
80584;SDS011;70137;56.482;9.154;2024-02-21T01:23:49;8.25;;;2.50;;
80584;SDS011;70137;56.482;9.154;2024-02-21T01:26:15;6.20;;;1.90;;
80584;SDS011;70137;56.482;9.154;2024-02-21T01:28:40;5.45;;;2.40;;
80584;SDS011;70137;56.482;9.154;2024-02-21T01:31:07;7.00;;;1.63;;
80584;SDS011;70137;56.482;9.154;2024-02-21T01:33:33;5.40;;;1.85;;
80584;SDS011;70137;56.482;9.154;2024-02-21T01:36:03;7.65;;;2.10;;
80584;SDS011;70137;56.482;9.154;2024-02-21T01:38:29;2.78;;;1.13;;
80584;SDS011;70137;56.482;9.154;2024-02-21T01:40:54;5.82;;;1.02;;
80584;SDS011;70137;56.482;9.154;2024-02-21T01:43:20;3.80;;;0.68;;
80584;SDS011;70137;56.482;9.154;2024-02-21T01:45:47;2.10;;;0.60;;
80584;SDS011;70137;56.482;9.154;2024-02-21T01:48:15;4.05;;;0.85;;
80584;SDS011;70137;56.482;9.154;2024-02-21T01:50:42;2.55;;;0.65;;
80584;SDS011;70137;56.482;9.154;2024-02-21T01:53:09;3.35;;;0.60;;
80584;SDS011;70137;56.482;9.154;2024-02-21T01:55:35;2.53;;;0.88;;
80584;SDS011;70137;56.482;9.154;2024-02-21T01:58:01;3.17;;;0.90;;
80584;SDS011;70137;56.482;9.154;2024-02-21T02:00:26;3.83;;;1.23;;
80584;SDS011;70137;56.482;9.154;2024-02-21T02:02:53;5.28;;;1.45;;
80584;SDS011;70137;56.482;9.154;2024-02-21T02:05:20;6.38;;;1.05;;
80584;SDS011;70137;56.482;9.154;2024-02-21T02:07:46;4.40;;;0.90;;
80584;SDS011;70137;56.482;9.154;2024-02-21T02:10:11;6.70;;;1.25;;
80584;SDS011;70137;56.482;9.154;2024-02-21T02:12:37;6.28;;;0.98;;
80584;SDS011;70137;56.482;9.154;2024-02-21T02:15:03;8.48;;;1.50;;
80584;SDS011;70137;56.482;9.154;2024-02-21T02:17:32;7.65;;;1.30;;
80584;SDS011;70137;56.482;9.154;2024-02-21T02:19:59;6.30;;;1.00;;
80584;SDS011;70137;56.482;9.154;2024-02-21T02:22:30;8.38;;;1.48;;
80584;SDS011;70137;56.482;9.154;2024-02-21T02:27:24;7.50;;;1.40;;
80584;SDS011;70137;56.482;9.154;2024-02-21T02:29:50;10.10;;;2.00;;
80584;SDS011;70137;56.482;9.154;2024-02-21T02:32:16;12.15;;;1.73;;
80584;SDS011;70137;56.482;9.154;2024-02-21T02:34:42;13.20;;;1.67;;
80584;SDS011;70137;56.482;9.154;2024-02-21T02:37:07;10.38;;;1.65;;
80584;SDS011;70137;56.482;9.154;2024-02-21T02:39:32;8.73;;;1.75;;
80584;SDS011;70137;56.482;9.154;2024-02-21T02:41:58;7.63;;;2.10;;
80584;SDS011;70137;56.482;9.154;2024-02-21T02:44:23;16.80;;;2.42;;
80584;SDS011;70137;56.482;9.154;2024-02-21T02:46:49;17.00;;;2.22;;
80584;SDS011;70137;56.482;9.154;2024-02-21T02:49:14;12.27;;;2.05;;
80584;SDS011;70137;56.482;9.154;2024-02-21T02:51:43;18.95;;;2.33;;
80584;SDS011;70137;56.482;9.154;2024-02-21T02:54:08;27.63;;;3.05;;
80584;SDS011;70137;56.482;9.154;2024-02-21T02:56:34;21.10;;;2.50;;
80584;SDS011;70137;56.482;9.154;2024-02-21T02:58:59;15.70;;;2.58;;
80584;SDS011;70137;56.482;9.154;2024-02-21T03:01:25;12.40;;;2.72;;
80584;SDS011;70137;56.482;9.154;2024-02-21T03:03:50;20.25;;;2.85;;
80584;SDS011;70137;56.482;9.154;2024-02-21T03:06:16;17.55;;;2.40;;
80584;SDS011;70137;56.482;9.154;2024-02-21T03:08:41;12.95;;;1.92;;
80584;SDS011;70137;56.482;9.154;2024-02-21T03:11:07;8.98;;;1.20;;
80584;SDS011;70137;56.482;9.154;2024-02-21T03:13:33;4.53;;;1.08;;
80584;SDS011;70137;56.482;9.154;2024-02-21T03:15:59;5.63;;;0.82;;
80584;SDS011;70137;56.482;9.154;2024-02-21T03:18:24;7.05;;;0.80;;
80584;SDS011;70137;56.482;9.154;2024-02-21T03:20:49;5.13;;;0.70;;
80584;SDS011;70137;56.482;9.154;2024-02-21T03:23:15;4.60;;;0.88;;
80584;SDS011;70137;56.482;9.154;2024-02-21T03:25:40;10.15;;;1.42;;
80584;SDS011;70137;56.482;9.154;2024-02-21T03:28:06;13.60;;;1.65;;
80584;SDS011;70137;56.482;9.154;2024-02-21T03:30:31;11.85;;;2.10;;
80584;SDS011;70137;56.482;9.154;2024-02-21T03:32:58;13.15;;;2.03;;
80584;SDS011;70137;56.482;9.154;2024-02-21T03:35:24;14.60;;;1.90;;
80584;SDS011;70137;56.482;9.154;2024-02-21T03:37:51;10.00;;;1.70;;
80584;SDS011;70137;56.482;9.154;2024-02-21T03:40:17;15.65;;;2.13;;
80584;SDS011;70137;56.482;9.154;2024-02-21T03:42:42;19.80;;;2.17;;
80584;SDS011;70137;56.482;9.154;2024-02-21T03:45:08;15.73;;;2.35;;
80584;SDS011;70137;56.482;9.154;2024-02-21T03:47:34;14.50;;;2.17;;
80584;SDS011;70137;56.482;9.154;2024-02-21T03:49:59;24.40;;;3.00;;
80584;SDS011;70137;56.482;9.154;2024-02-21T03:52:25;20.73;;;2.95;;
80584;SDS011;70137;56.482;9.154;2024-02-21T03:54:50;18.48;;;3.13;;
80584;SDS011;70137;56.482;9.154;2024-02-21T03:57:15;20.95;;;2.17;;
80584;SDS011;70137;56.482;9.154;2024-02-21T03:59:42;27.65;;;2.70;;
80584;SDS011;70137;56.482;9.154;2024-02-21T04:02:08;17.13;;;2.22;;
80584;SDS011;70137;56.482;9.154;2024-02-21T04:04:34;19.65;;;2.20;;
80584;SDS011;70137;56.482;9.154;2024-02-21T04:07:02;16.85;;;2.10;;
80584;SDS011;70137;56.482;9.154;2024-02-21T04:09:31;19.45;;;2.33;;
80584;SDS011;70137;56.482;9.154;2024-02-21T04:11:58;17.70;;;2.20;;
80584;SDS011;70137;56.482;9.154;2024-02-21T04:14:23;21.63;;;2.28;;
80584;SDS011;70137;56.482;9.154;2024-02-21T04:16:49;20.25;;;2.00;;
80584;SDS011;70137;56.482;9.154;2024-02-21T04:19:14;26.58;;;3.90;;
80584;SDS011;70137;56.482;9.154;2024-02-21T04:21:40;17.63;;;2.28;;
80584;SDS011;70137;56.482;9.154;2024-02-21T04:24:05;21.52;;;1.90;;
80584;SDS011;70137;56.482;9.154;2024-02-21T04:26:31;27.80;;;2.33;;
80584;SDS011;70137;56.482;9.154;2024-02-21T04:28:56;25.60;;;2.88;;
80584;SDS011;70137;56.482;9.154;2024-02-21T04:31:21;20.83;;;2.60;;
80584;SDS011;70137;56.482;9.154;2024-02-21T04:33:47;22.95;;;2.72;;
80584;SDS011;70137;56.482;9.154;2024-02-21T04:36:12;19.60;;;3.13;;
80584;SDS011;70137;56.482;9.154;2024-02-21T04:38:38;23.92;;;3.60;;
80584;SDS011;70137;56.482;9.154;2024-02-21T04:41:04;21.50;;;2.50;;
80584;SDS011;70137;56.482;9.154;2024-02-21T04:43:29;19.98;;;2.10;;
80584;SDS011;70137;56.482;9.154;2024-02-21T04:45:54;14.10;;;2.03;;
80584;SDS011;70137;56.482;9.154;2024-02-21T04:48:20;17.08;;;2.50;;
80584;SDS011;70137;56.482;9.154;2024-02-21T04:50:46;20.00;;;3.00;;
80584;SDS011;70137;56.482;9.154;2024-02-21T04:53:11;22.05;;;2.20;;
80584;SDS011;70137;56.482;9.154;2024-02-21T04:55:36;22.50;;;3.10;;
80584;SDS011;70137;56.482;9.154;2024-02-21T04:58:02;19.73;;;3.67;;
80584;SDS011;70137;56.482;9.154;2024-02-21T05:00:27;12.98;;;1.63;;
80584;SDS011;70137;56.482;9.154;2024-02-21T05:02:53;10.93;;;2.00;;
80584;SDS011;70137;56.482;9.154;2024-02-21T05:05:18;12.75;;;2.10;;
80584;SDS011;70137;56.482;9.154;2024-02-21T05:07:43;13.90;;;3.08;;
80584;SDS011;70137;56.482;9.154;2024-02-21T05:10:09;13.25;;;1.88;;
80584;SDS011;70137;56.482;9.154;2024-02-21T05:12:34;15.55;;;2.00;;
80584;SDS011;70137;56.482;9.154;2024-02-21T05:15:00;15.57;;;2.60;;
80584;SDS011;70137;56.482;9.154;2024-02-21T05:17:25;19.27;;;2.38;;
80584;SDS011;70137;56.482;9.154;2024-02-21T05:19:51;15.75;;;2.60;;
80584;SDS011;70137;56.482;9.154;2024-02-21T05:22:16;18.23;;;2.10;;
80584;SDS011;70137;56.482;9.154;2024-02-21T05:24:41;30.85;;;2.85;;
80584;SDS011;70137;56.482;9.154;2024-02-21T05:27:07;21.63;;;3.17;;
80584;SDS011;70137;56.482;9.154;2024-02-21T05:29:32;28.58;;;3.13;;
80584;SDS011;70137;56.482;9.154;2024-02-21T05:31:58;30.85;;;3.30;;
80584;SDS011;70137;56.482;9.154;2024-02-21T05:34:23;21.77;;;2.53;;
80584;SDS011;70137;56.482;9.154;2024-02-21T05:36:50;27.35;;;3.25;;
80584;SDS011;70137;56.482;9.154;2024-02-21T05:39:15;23.08;;;3.17;;
80584;SDS011;70137;56.482;9.154;2024-02-21T05:41:42;34.67;;;4.20;;
80584;SDS011;70137;56.482;9.154;2024-02-21T05:44:08;25.60;;;3.63;;
80584;SDS011;70137;56.482;9.154;2024-02-21T05:46:33;29.45;;;3.78;;
80584;SDS011;70137;56.482;9.154;2024-02-21T05:48:59;25.80;;;4.97;;
80584;SDS011;70137;56.482;9.154;2024-02-21T05:51:24;27.63;;;3.92;;
80584;SDS011;70137;56.482;9.154;2024-02-21T05:53:49;25.90;;;4.45;;
80584;SDS011;70137;56.482;9.154;2024-02-21T05:56:15;24.52;;;3.40;;
80584;SDS011;70137;56.482;9.154;2024-02-21T05:58:40;21.83;;;3.85;;
80584;SDS011;70137;56.482;9.154;2024-02-21T06:01:06;24.80;;;3.88;;
80584;SDS011;70137;56.482;9.154;2024-02-21T06:03:33;24.33;;;3.65;;
80584;SDS011;70137;56.482;9.154;2024-02-21T06:05:59;22.15;;;3.05;;
80584;SDS011;70137;56.482;9.154;2024-02-21T06:08:27;23.77;;;3.33;;
80584;SDS011;70137;56.482;9.154;2024-02-21T06:10:53;25.02;;;3.33;;
80584;SDS011;70137;56.482;9.154;2024-02-21T06:13:26;20.05;;;2.90;;
80584;SDS011;70137;56.482;9.154;2024-02-21T06:15:51;21.88;;;2.60;;
80584;SDS011;70137;56.482;9.154;2024-02-21T06:18:17;29.83;;;3.50;;
80584;SDS011;70137;56.482;9.154;2024-02-21T06:20:42;24.23;;;3.10;;
80584;SDS011;70137;56.482;9.154;2024-02-21T06:23:08;22.85;;;3.10;;
80584;SDS011;70137;56.482;9.154;2024-02-21T06:25:33;18.25;;;2.47;;
80584;SDS011;70137;56.482;9.154;2024-02-21T06:27:59;24.60;;;3.20;;
80584;SDS011;70137;56.482;9.154;2024-02-21T06:30:24;21.38;;;3.42;;
80584;SDS011;70137;56.482;9.154;2024-02-21T06:32:49;24.17;;;3.30;;
80584;SDS011;70137;56.482;9.154;2024-02-21T06:35:15;18.80;;;3.28;;
80584;SDS011;70137;56.482;9.154;2024-02-21T06:37:41;29.60;;;3.50;;
80584;SDS011;70137;56.482;9.154;2024-02-21T06:40:06;25.80;;;3.35;;
80584;SDS011;70137;56.482;9.154;2024-02-21T06:42:32;16.50;;;2.40;;
80584;SDS011;70137;56.482;9.154;2024-02-21T06:44:57;18.40;;;3.30;;
80584;SDS011;70137;56.482;9.154;2024-02-21T06:47:23;24.17;;;2.65;;
80584;SDS011;70137;56.482;9.154;2024-02-21T06:49:49;18.55;;;2.55;;
80584;SDS011;70137;56.482;9.154;2024-02-21T06:52:16;24.60;;;3.15;;
80584;SDS011;70137;56.482;9.154;2024-02-21T06:54:42;24.67;;;2.85;;
80584;SDS011;70137;56.482;9.154;2024-02-21T06:57:08;18.25;;;2.53;;
80584;SDS011;70137;56.482;9.154;2024-02-21T06:59:33;23.35;;;2.72;;
80584;SDS011;70137;56.482;9.154;2024-02-21T07:01:59;24.67;;;3.03;;
80584;SDS011;70137;56.482;9.154;2024-02-21T07:04:25;22.20;;;2.78;;
80584;SDS011;70137;56.482;9.154;2024-02-21T07:06:52;20.58;;;2.58;;
80584;SDS011;70137;56.482;9.154;2024-02-21T07:09:17;24.33;;;3.53;;
80584;SDS011;70137;56.482;9.154;2024-02-21T07:11:42;22.35;;;3.05;;
80584;SDS011;70137;56.482;9.154;2024-02-21T07:14:08;20.20;;;3.58;;
80584;SDS011;70137;56.482;9.154;2024-02-21T07:16:33;20.67;;;3.55;;
80584;SDS011;70137;56.482;9.154;2024-02-21T07:18:58;17.85;;;2.50;;
80584;SDS011;70137;56.482;9.154;2024-02-21T07:21:24;27.63;;;3.50;;
80584;SDS011;70137;56.482;9.154;2024-02-21T07:23:49;22.20;;;3.60;;
80584;SDS011;70137;56.482;9.154;2024-02-21T07:26:15;21.60;;;3.08;;
80584;SDS011;70137;56.482;9.154;2024-02-21T07:28:40;26.27;;;2.80;;
80584;SDS011;70137;56.482;9.154;2024-02-21T07:31:05;17.63;;;2.45;;
80584;SDS011;70137;56.482;9.154;2024-02-21T07:33:31;15.20;;;2.08;;
80584;SDS011;70137;56.482;9.154;2024-02-21T07:35:56;16.38;;;1.85;;
80584;SDS011;70137;56.482;9.154;2024-02-21T07:38:21;15.98;;;2.03;;
80584;SDS011;70137;56.482;9.154;2024-02-21T07:40:47;14.23;;;1.92;;
80584;SDS011;70137;56.482;9.154;2024-02-21T07:43:13;25.13;;;2.10;;
80584;SDS011;70137;56.482;9.154;2024-02-21T07:45:38;19.15;;;2.83;;
80584;SDS011;70137;56.482;9.154;2024-02-21T07:48:04;18.02;;;2.70;;
80584;SDS011;70137;56.482;9.154;2024-02-21T07:50:30;20.30;;;2.70;;
80584;SDS011;70137;56.482;9.154;2024-02-21T07:52:56;18.48;;;2.20;;
80584;SDS011;70137;56.482;9.154;2024-02-21T07:55:21;21.17;;;2.72;;
80584;SDS011;70137;56.482;9.154;2024-02-21T07:57:47;14.38;;;2.35;;
80584;SDS011;70137;56.482;9.154;2024-02-21T08:00:12;20.77;;;3.28;;
80584;SDS011;70137;56.482;9.154;2024-02-21T08:02:46;23.77;;;2.90;;
80584;SDS011;70137;56.482;9.154;2024-02-21T08:05:11;29.92;;;3.63;;
80584;SDS011;70137;56.482;9.154;2024-02-21T08:07:37;23.10;;;3.35;;
80584;SDS011;70137;56.482;9.154;2024-02-21T08:10:03;18.15;;;3.05;;
80584;SDS011;70137;56.482;9.154;2024-02-21T08:12:29;20.95;;;3.38;;
80584;SDS011;70137;56.482;9.154;2024-02-21T08:14:55;26.92;;;3.53;;
80584;SDS011;70137;56.482;9.154;2024-02-21T08:17:20;27.73;;;3.72;;
80584;SDS011;70137;56.482;9.154;2024-02-21T08:19:46;18.48;;;3.30;;
80584;SDS011;70137;56.482;9.154;2024-02-21T08:22:11;23.45;;;3.58;;
80584;SDS011;70137;56.482;9.154;2024-02-21T08:24:37;36.88;;;5.90;;
80584;SDS011;70137;56.482;9.154;2024-02-21T08:27:03;29.73;;;4.95;;
80584;SDS011;70137;56.482;9.154;2024-02-21T08:40:11;25.20;;;3.17;;
80584;SDS011;70137;56.482;9.154;2024-02-21T08:42:38;19.30;;;3.47;;
80584;SDS011;70137;56.482;9.154;2024-02-21T08:45:04;25.23;;;3.65;;
80584;SDS011;70137;56.482;9.154;2024-02-21T08:47:30;31.45;;;3.50;;
80584;SDS011;70137;56.482;9.154;2024-02-21T08:49:55;23.40;;;3.25;;
80584;SDS011;70137;56.482;9.154;2024-02-21T08:52:21;24.52;;;3.22;;
80584;SDS011;70137;56.482;9.154;2024-02-21T08:54:46;34.65;;;3.25;;
80584;SDS011;70137;56.482;9.154;2024-02-21T08:57:11;38.92;;;4.10;;
80584;SDS011;70137;56.482;9.154;2024-02-21T08:59:38;20.45;;;3.35;;
80584;SDS011;70137;56.482;9.154;2024-02-21T09:02:04;24.20;;;3.42;;
80584;SDS011;70137;56.482;9.154;2024-02-21T09:04:32;15.20;;;3.22;;
80584;SDS011;70137;56.482;9.154;2024-02-21T09:06:57;22.13;;;3.15;;
80584;SDS011;70137;56.482;9.154;2024-02-21T09:09:23;31.90;;;4.10;;
80584;SDS011;70137;56.482;9.154;2024-02-21T09:11:48;21.13;;;3.83;;
80584;SDS011;70137;56.482;9.154;2024-02-21T09:14:13;18.45;;;3.15;;
80584;SDS011;70137;56.482;9.154;2024-02-21T09:16:40;26.80;;;3.33;;
80584;SDS011;70137;56.482;9.154;2024-02-21T09:19:06;27.58;;;3.70;;
80584;SDS011;70137;56.482;9.154;2024-02-21T09:21:32;23.27;;;3.17;;
80584;SDS011;70137;56.482;9.154;2024-02-21T09:23:57;26.42;;;3.40;;
80584;SDS011;70137;56.482;9.154;2024-02-21T09:26:23;21.70;;;2.85;;
80584;SDS011;70137;56.482;9.154;2024-02-21T09:28:48;22.77;;;2.60;;
80584;SDS011;70137;56.482;9.154;2024-02-21T09:31:16;16.98;;;3.65;;
80584;SDS011;70137;56.482;9.154;2024-02-21T09:33:42;20.58;;;3.35;;
80584;SDS011;70137;56.482;9.154;2024-02-21T09:36:07;24.80;;;3.13;;
80584;SDS011;70137;56.482;9.154;2024-02-21T09:38:32;19.92;;;2.95;;
80584;SDS011;70137;56.482;9.154;2024-02-21T09:40:59;21.65;;;3.08;;
80584;SDS011;70137;56.482;9.154;2024-02-21T09:43:29;18.60;;;3.25;;
80584;SDS011;70137;56.482;9.154;2024-02-21T09:45:55;27.63;;;2.88;;
80584;SDS011;70137;56.482;9.154;2024-02-21T09:48:39;19.65;;;2.20;;
80584;SDS011;70137;56.482;9.154;2024-02-21T09:51:18;25.10;;;3.47;;
80584;SDS011;70137;56.482;9.154;2024-02-21T09:53:46;21.42;;;3.10;;
80584;SDS011;70137;56.482;9.154;2024-02-21T09:56:12;16.60;;;2.90;;
80584;SDS011;70137;56.482;9.154;2024-02-21T09:58:38;21.20;;;3.03;;
80584;SDS011;70137;56.482;9.154;2024-02-21T10:01:04;13.93;;;2.50;;
80584;SDS011;70137;56.482;9.154;2024-02-21T10:03:33;19.10;;;2.63;;
80584;SDS011;70137;56.482;9.154;2024-02-21T10:05:59;20.73;;;2.58;;
80584;SDS011;70137;56.482;9.154;2024-02-21T10:08:26;21.63;;;2.83;;
80584;SDS011;70137;56.482;9.154;2024-02-21T10:10:51;19.85;;;2.78;;
80584;SDS011;70137;56.482;9.154;2024-02-21T10:13:25;13.32;;;2.53;;
80584;SDS011;70137;56.482;9.154;2024-02-21T10:18:26;13.25;;;2.20;;
80584;SDS011;70137;56.482;9.154;2024-02-21T10:21:04;16.52;;;2.75;;
80584;SDS011;70137;56.482;9.154;2024-02-21T10:23:41;19.38;;;2.65;;
80584;SDS011;70137;56.482;9.154;2024-02-21T10:26:24;18.42;;;2.75;;
80584;SDS011;70137;56.482;9.154;2024-02-21T10:28:50;13.23;;;2.05;;
80584;SDS011;70137;56.482;9.154;2024-02-21T10:31:24;13.00;;;1.95;;
80584;SDS011;70137;56.482;9.154;2024-02-21T10:33:57;15.20;;;2.10;;
80584;SDS011;70137;56.482;9.154;2024-02-21T10:36:24;14.93;;;2.10;;
80584;SDS011;70137;56.482;9.154;2024-02-21T10:38:50;16.02;;;2.15;;
80584;SDS011;70137;56.482;9.154;2024-02-21T10:41:17;17.42;;;2.08;;
80584;SDS011;70137;56.482;9.154;2024-02-21T10:43:46;14.93;;;2.10;;
80584;SDS011;70137;56.482;9.154;2024-02-21T10:46:18;11.90;;;2.25;;
80584;SDS011;70137;56.482;9.154;2024-02-21T10:48:45;12.80;;;2.08;;
80584;SDS011;70137;56.482;9.154;2024-02-21T10:53:44;12.05;;;2.30;;
80584;SDS011;70137;56.482;9.154;2024-02-21T10:59:02;13.98;;;1.85;;
80584;SDS011;70137;56.482;9.154;2024-02-21T11:01:29;10.48;;;1.95;;
80584;SDS011;70137;56.482;9.154;2024-02-21T11:04:04;9.82;;;1.60;;
80584;SDS011;70137;56.482;9.154;2024-02-21T11:06:31;15.90;;;1.90;;
80584;SDS011;70137;56.482;9.154;2024-02-21T11:09:05;15.25;;;2.40;;
80584;SDS011;70137;56.482;9.154;2024-02-21T11:11:34;10.25;;;1.60;;
80584;SDS011;70137;56.482;9.154;2024-02-21T11:14:09;16.30;;;2.03;;
80584;SDS011;70137;56.482;9.154;2024-02-21T11:16:45;17.52;;;1.95;;
80584;SDS011;70137;56.482;9.154;2024-02-21T11:19:27;11.63;;;1.67;;
80584;SDS011;70137;56.482;9.154;2024-02-21T11:21:54;11.30;;;1.48;;
80584;SDS011;70137;56.482;9.154;2024-02-21T11:24:25;14.40;;;2.13;;
80584;SDS011;70137;56.482;9.154;2024-02-21T11:29:44;19.50;;;1.65;;
80584;SDS011;70137;56.482;9.154;2024-02-21T11:32:11;9.30;;;1.60;;
80584;SDS011;70137;56.482;9.154;2024-02-21T11:34:40;8.95;;;1.38;;
80584;SDS011;70137;56.482;9.154;2024-02-21T11:37:15;13.57;;;1.25;;
80584;SDS011;70137;56.482;9.154;2024-02-21T11:39:41;13.27;;;1.70;;
80584;SDS011;70137;56.482;9.154;2024-02-21T11:42:07;12.77;;;2.35;;
80584;SDS011;70137;56.482;9.154;2024-02-21T11:44:37;9.13;;;1.42;;
80584;SDS011;70137;56.482;9.154;2024-02-21T11:47:07;13.57;;;1.67;;
80584;SDS011;70137;56.482;9.154;2024-02-21T11:49:36;12.35;;;1.45;;
80584;SDS011;70137;56.482;9.154;2024-02-21T11:52:11;6.25;;;1.45;;
80584;SDS011;70137;56.482;9.154;2024-02-21T11:54:37;10.90;;;1.75;;
80584;SDS011;70137;56.482;9.154;2024-02-21T11:57:02;9.10;;;1.33;;
80584;SDS011;70137;56.482;9.154;2024-02-21T11:59:32;12.88;;;1.35;;
80584;SDS011;70137;56.482;9.154;2024-02-21T12:02:01;8.48;;;1.10;;
80584;SDS011;70137;56.482;9.154;2024-02-21T12:04:29;10.55;;;1.35;;
80584;SDS011;70137;56.482;9.154;2024-02-21T12:06:58;5.70;;;1.35;;
80584;SDS011;70137;56.482;9.154;2024-02-21T12:09:24;10.98;;;1.92;;
80584;SDS011;70137;56.482;9.154;2024-02-21T12:12:00;12.70;;;1.33;;
80584;SDS011;70137;56.482;9.154;2024-02-21T12:14:30;10.75;;;1.20;;
80584;SDS011;70137;56.482;9.154;2024-02-21T12:16:57;10.55;;;1.52;;
80584;SDS011;70137;56.482;9.154;2024-02-21T12:19:24;7.13;;;1.45;;
80584;SDS011;70137;56.482;9.154;2024-02-21T12:21:49;10.02;;;1.30;;
80584;SDS011;70137;56.482;9.154;2024-02-21T12:26:46;17.15;;;2.00;;
80584;SDS011;70137;56.482;9.154;2024-02-21T12:29:12;11.35;;;1.95;;
80584;SDS011;70137;56.482;9.154;2024-02-21T12:31:37;12.20;;;1.65;;
80584;SDS011;70137;56.482;9.154;2024-02-21T12:34:03;15.15;;;2.00;;
80584;SDS011;70137;56.482;9.154;2024-02-21T12:36:32;13.43;;;1.65;;
80584;SDS011;70137;56.482;9.154;2024-02-21T12:39:01;10.75;;;2.13;;
80584;SDS011;70137;56.482;9.154;2024-02-21T12:41:28;13.02;;;1.95;;
80584;SDS011;70137;56.482;9.154;2024-02-21T12:43:55;13.75;;;2.38;;
80584;SDS011;70137;56.482;9.154;2024-02-21T12:46:21;14.30;;;1.67;;
80584;SDS011;70137;56.482;9.154;2024-02-21T12:48:47;10.82;;;1.90;;
80584;SDS011;70137;56.482;9.154;2024-02-21T12:51:12;9.90;;;1.42;;
80584;SDS011;70137;56.482;9.154;2024-02-21T12:53:38;13.13;;;2.33;;
80584;SDS011;70137;56.482;9.154;2024-02-21T12:56:04;12.10;;;1.63;;
80584;SDS011;70137;56.482;9.154;2024-02-21T12:58:30;11.27;;;1.80;;
80584;SDS011;70137;56.482;9.154;2024-02-21T13:00:56;16.10;;;2.25;;
80584;SDS011;70137;56.482;9.154;2024-02-21T13:03:22;16.20;;;1.65;;
80584;SDS011;70137;56.482;9.154;2024-02-21T13:05:47;15.20;;;2.17;;
80584;SDS011;70137;56.482;9.154;2024-02-21T13:08:13;15.13;;;2.35;;
80584;SDS011;70137;56.482;9.154;2024-02-21T13:10:38;16.52;;;2.22;;
80584;SDS011;70137;56.482;9.154;2024-02-21T13:13:04;11.93;;;1.80;;
80584;SDS011;70137;56.482;9.154;2024-02-21T13:15:29;14.90;;;1.80;;
80584;SDS011;70137;56.482;9.154;2024-02-21T13:17:57;12.07;;;1.92;;
80584;SDS011;70137;56.482;9.154;2024-02-21T13:20:25;16.02;;;2.20;;
80584;SDS011;70137;56.482;9.154;2024-02-21T13:22:52;15.60;;;1.92;;
80584;SDS011;70137;56.482;9.154;2024-02-21T13:25:17;18.10;;;1.80;;
80584;SDS011;70137;56.482;9.154;2024-02-21T13:27:46;15.38;;;2.53;;
80584;SDS011;70137;56.482;9.154;2024-02-21T13:30:13;12.30;;;1.88;;
80584;SDS011;70137;56.482;9.154;2024-02-21T13:32:40;11.88;;;2.00;;
80584;SDS011;70137;56.482;9.154;2024-02-21T13:35:07;10.05;;;1.80;;
80584;SDS011;70137;56.482;9.154;2024-02-21T13:37:33;10.73;;;1.90;;
80584;SDS011;70137;56.482;9.154;2024-02-21T13:39:59;15.82;;;2.50;;
80584;SDS011;70137;56.482;9.154;2024-02-21T13:42:24;15.88;;;3.20;;
80584;SDS011;70137;56.482;9.154;2024-02-21T13:44:52;11.63;;;1.77;;
80584;SDS011;70137;56.482;9.154;2024-02-21T13:47:18;15.95;;;1.98;;
80584;SDS011;70137;56.482;9.154;2024-02-21T13:49:43;11.07;;;1.90;;
80584;SDS011;70137;56.482;9.154;2024-02-21T13:52:09;13.45;;;2.13;;
80584;SDS011;70137;56.482;9.154;2024-02-21T13:54:34;15.23;;;2.08;;
80584;SDS011;70137;56.482;9.154;2024-02-21T13:57:00;11.70;;;1.80;;
80584;SDS011;70137;56.482;9.154;2024-02-21T13:59:27;10.63;;;1.75;;
80584;SDS011;70137;56.482;9.154;2024-02-21T14:01:53;17.20;;;2.00;;
80584;SDS011;70137;56.482;9.154;2024-02-21T14:04:18;11.98;;;1.83;;
80584;SDS011;70137;56.482;9.154;2024-02-21T14:06:43;14.35;;;1.90;;
80584;SDS011;70137;56.482;9.154;2024-02-21T14:09:09;11.70;;;2.08;;
80584;SDS011;70137;56.482;9.154;2024-02-21T14:11:36;14.70;;;2.20;;
80584;SDS011;70137;56.482;9.154;2024-02-21T14:14:02;11.73;;;2.10;;
80584;SDS011;70137;56.482;9.154;2024-02-21T14:16:28;18.13;;;2.28;;
80584;SDS011;70137;56.482;9.154;2024-02-21T14:18:54;13.52;;;2.17;;
80584;SDS011;70137;56.482;9.154;2024-02-21T14:21:20;15.52;;;1.98;;
80584;SDS011;70137;56.482;9.154;2024-02-21T14:23:45;16.23;;;2.35;;
80584;SDS011;70137;56.482;9.154;2024-02-21T14:26:10;9.70;;;1.55;;
80584;SDS011;70137;56.482;9.154;2024-02-21T14:28:37;11.25;;;1.80;;
80584;SDS011;70137;56.482;9.154;2024-02-21T14:31:02;10.10;;;1.65;;
80584;SDS011;70137;56.482;9.154;2024-02-21T14:33:28;12.63;;;1.60;;
80584;SDS011;70137;56.482;9.154;2024-02-21T14:35:55;15.18;;;1.83;;
80584;SDS011;70137;56.482;9.154;2024-02-21T14:38:21;19.52;;;2.00;;
80584;SDS011;70137;56.482;9.154;2024-02-21T14:40:47;13.45;;;1.90;;
80584;SDS011;70137;56.482;9.154;2024-02-21T14:43:12;14.18;;;1.83;;
80584;SDS011;70137;56.482;9.154;2024-02-21T14:45:38;20.35;;;2.10;;
80584;SDS011;70137;56.482;9.154;2024-02-21T14:48:05;14.48;;;1.98;;
80584;SDS011;70137;56.482;9.154;2024-02-21T14:50:30;9.80;;;1.90;;
80584;SDS011;70137;56.482;9.154;2024-02-21T14:52:56;12.10;;;1.98;;
80584;SDS011;70137;56.482;9.154;2024-02-21T14:55:21;14.65;;;1.88;;
80584;SDS011;70137;56.482;9.154;2024-02-21T14:57:48;12.88;;;1.85;;